Time;durP1;ratioP1;P1;durP2;ratioP2;P2;SDS_P1;SDS_P2;PMS_P1;PMS_P2;Temp;Humidity;BMP_temperature;BMP_pressure;BME280_temperature;BME280_humidity;BME280_pressure;Samples;Min_cycle;Max_cycle;Signal;HPM_P1;HPM_P2
2021/12/12 00:02:18;;;;;;;3.00;1.67;;;19.40;48.90;;;;;;5009519;28;20057;-81
2021/12/12 00:04:46;;;;;;;2.92;1.50;;;19.40;48.90;;;;;;5014480;28;20062;-82
2021/12/12 00:07:13;;;;;;;3.08;1.42;;;19.40;48.80;;;;;;5009847;28;20512;-81
2021/12/12 00:09:45;;;;;;;2.38;1.45;;;19.40;48.90;;;;;;5009585;28;20049;-83
2021/12/12 00:12:23;;;;;;;3.33;2.03;;;19.40;48.90;;;;;;5008057;28;20524;-83
2021/12/12 00:14:48;;;;;;;2.95;1.40;;;19.40;48.90;;;;;;5009513;28;20129;-83
2021/12/12 00:17:14;;;;;;;3.22;1.73;;;19.40;48.90;;;;;;5009296;28;20188;-83
2021/12/12 00:19:40;;;;;;;3.28;1.60;;;19.40;48.90;;;;;;5009806;28;20509;-81
2021/12/12 00:22:09;;;;;;;3.92;1.90;;;19.40;48.90;;;;;;5008953;28;20132;-81
2021/12/12 00:24:34;;;;;;;3.97;1.70;;;19.70;49.00;;;;;;5009119;28;20066;-81
2021/12/12 00:27:00;;;;;;;2.53;1.45;;;19.40;48.90;;;;;;5009315;28;20390;-82
2021/12/12 00:29:26;;;;;;;4.68;1.90;;;19.40;48.80;;;;;;5009243;28;20041;-83
2021/12/12 00:31:53;;;;;;;3.38;1.60;;;19.30;48.90;;;;;;5009795;28;20065;-81
2021/12/12 00:34:18;;;;;;;4.43;1.58;;;19.30;48.80;;;;;;5009311;28;20135;-81
2021/12/12 00:36:44;;;;;;;3.47;1.70;;;19.30;48.80;;;;;;5008959;28;20077;-82
2021/12/12 00:39:17;;;;;;;3.15;1.50;;;19.30;48.80;;;;;;5008948;28;20190;-82
2021/12/12 00:42:03;;;;;;;4.30;1.77;;;19.30;48.80;;;;;;5009281;28;20410;-82
2021/12/12 00:44:28;;;;;;;3.55;1.90;;;19.30;48.80;;;;;;5009039;28;20148;-81
2021/12/12 00:46:55;;;;;;;3.25;1.67;;;19.30;48.80;;;;;;5008813;28;20093;-83
2021/12/12 00:49:20;;;;;;;4.07;1.92;;;19.30;48.80;;;;;;5009370;28;20038;-82
2021/12/12 00:51:46;;;;;;;3.50;1.67;;;19.30;48.80;;;;;;5008949;28;20053;-83
2021/12/12 00:54:13;;;;;;;3.88;1.58;;;19.30;48.80;;;;;;5008914;28;20041;-83
2021/12/12 00:56:38;;;;;;;3.00;1.50;;;19.30;48.90;;;;;;5007329;28;20049;-82
2021/12/12 00:59:04;;;;;;;3.50;1.63;;;19.20;48.80;;;;;;5009044;28;20603;-83
2021/12/12 01:01:50;;;;;;;3.00;1.77;;;19.30;48.90;;;;;;5009143;28;20085;-83
2021/12/12 01:04:20;;;;;;;3.13;1.58;;;19.20;48.80;;;;;;4992516;28;20037;-82
2021/12/12 01:06:46;;;;;;;4.97;1.90;;;19.20;48.80;;;;;;4979242;28;20064;-83
2021/12/12 01:09:15;;;;;;;4.00;2.03;;;19.20;48.80;;;;;;4989267;28;20486;-83
2021/12/12 01:11:43;;;;;;;2.60;1.52;;;19.20;48.80;;;;;;4988929;28;20050;-83
2021/12/12 01:14:11;;;;;;;4.60;1.48;;;19.20;48.70;;;;;;4972969;28;20042;-83
2021/12/12 01:16:45;;;;;;;2.30;1.33;;;19.20;48.80;;;;;;4989291;28;20642;-83
2021/12/12 01:19:14;;;;;;;3.35;1.80;;;19.20;48.80;;;;;;4988643;28;20125;-82
2021/12/12 01:21:48;;;;;;;3.83;1.83;;;19.20;48.80;;;;;;4988992;28;20514;-83
2021/12/12 01:24:24;;;;;;;3.08;1.73;;;19.20;48.80;;;;;;4991419;28;20061;-84
2021/12/12 01:26:49;;;;;;;2.78;1.52;;;20.30;49.40;;;;;;4973463;28;20046;-83
2021/12/12 01:29:15;;;;;;;4.38;1.65;;;19.10;48.70;;;;;;4988827;28;20061;-83
2021/12/12 01:31:46;;;;;;;3.35;1.83;;;19.10;48.70;;;;;;4971196;28;20521;-82
2021/12/12 01:34:14;;;;;;;3.40;1.83;;;19.10;48.70;;;;;;4988998;28;20046;-82
2021/12/12 01:39:24;;;;;;;3.05;1.50;;;19.10;48.80;;;;;;4988872;28;20402;-84
2021/12/12 01:41:59;;;;;;;4.22;1.85;;;19.10;48.80;;;;;;4988158;28;20050;-82
2021/12/12 01:44:30;;;;;;;3.05;1.75;;;19.10;48.80;;;;;;4988845;28;20054;-83
2021/12/12 01:47:13;;;;;;;3.45;1.70;;;20.70;49.60;;;;;;4972396;28;20042;-83
2021/12/12 01:49:41;;;;;;;3.80;1.75;;;19.10;48.80;;;;;;4972200;28;20069;-81
2021/12/12 01:52:08;;;;;;;3.65;1.65;;;19.10;48.70;;;;;;4973026;28;20632;-82
2021/12/12 01:54:43;;;;;;;3.88;1.90;;;19.10;48.80;;;;;;4988848;28;20058;-82
2021/12/12 01:57:09;;;;;;;2.55;1.30;;;19.10;48.80;;;;;;4988579;28;20524;-83
2021/12/12 01:59:35;;;;;;;4.22;1.70;;;19.10;48.70;;;;;;4972210;28;20124;-83
2021/12/12 02:02:08;;;;;;;3.35;1.60;;;19.10;48.80;;;;;;4988430;28;20062;-83
2021/12/12 02:04:44;;;;;;;3.25;1.50;;;19.10;48.80;;;;;;4988676;28;20414;-83
2021/12/12 02:07:14;;;;;;;4.20;1.73;;;19.00;48.80;;;;;;4972515;28;21175;-83
2021/12/12 02:09:40;;;;;;;3.40;1.45;;;19.00;48.70;;;;;;4973488;28;20515;-82
2021/12/12 02:12:06;;;;;;;3.17;1.60;;;19.00;48.70;;;;;;4969711;28;20050;-83
2021/12/12 02:14:32;;;;;;;3.88;1.55;;;19.00;48.70;;;;;;4960480;28;20499;-83
2021/12/12 02:17:05;;;;;;;3.55;1.92;;;19.00;48.70;;;;;;4983240;28;20050;-81
2021/12/12 02:19:40;;;;;;;3.47;1.73;;;19.00;48.70;;;;;;4988240;28;20049;-81
2021/12/12 02:22:47;;;;;;;4.15;1.75;;;19.00;48.70;;;;;;4973294;28;20053;-82
2021/12/12 02:36:12;;;;;;;3.35;1.60;;;19.00;48.80;;;;;;4988255;28;20524;-83
2021/12/12 02:38:38;;;;;;;4.13;1.88;;;19.00;48.80;;;;;;4987651;28;20138;-83
2021/12/12 02:41:07;;;;;;;3.63;1.73;;;18.90;48.70;;;;;;4988157;28;20129;-82
2021/12/12 02:43:36;;;;;;;3.08;1.55;;;18.90;48.70;;;;;;4988288;28;20065;-82
2021/12/12 02:46:02;;;;;;;3.65;1.52;;;18.90;48.80;;;;;;4990972;28;20046;-82
2021/12/12 02:48:39;;;;;;;3.70;1.70;;;18.90;48.70;;;;;;4991586;28;20046;-82
2021/12/12 02:51:10;;;;;;;3.53;1.55;;;18.90;48.70;;;;;;4991449;28;20054;-81
2021/12/12 02:53:54;;;;;;;2.63;1.63;;;18.90;48.80;;;;;;4991549;28;20046;-82
2021/12/12 02:56:33;;;;;;;3.55;1.65;;;18.90;48.80;;;;;;4991471;28;20062;-81
2021/12/12 02:58:59;;;;;;;2.70;1.25;;;18.90;48.80;;;;;;4990773;28;20039;-81
2021/12/12 03:01:40;;;;;;;3.03;1.60;;;18.90;48.70;;;;;;4991623;28;20047;-82
2021/12/12 03:04:05;;;;;;;3.10;1.50;;;18.90;48.80;;;;;;4991309;28;20050;-82
2021/12/12 03:06:33;;;;;;;4.13;1.60;;;18.80;48.70;;;;;;4991047;28;20046;-82
2021/12/12 03:09:10;;;;;;;3.58;1.40;;;18.80;48.80;;;;;;4991509;28;20046;-81
2021/12/12 03:11:36;;;;;;;4.30;1.63;;;18.80;48.70;;;;;;4991374;28;20402;-82
2021/12/12 03:14:02;;;;;;;4.47;1.42;;;18.80;48.70;;;;;;4991117;28;20129;-82
2021/12/12 03:16:27;;;;;;;3.28;1.50;;;18.80;48.70;;;;;;4991099;28;20749;-82
2021/12/12 03:18:53;;;;;;;2.78;1.30;;;18.80;48.80;;;;;;4974596;28;20064;-82
2021/12/12 03:21:30;;;;;;;3.25;1.50;;;18.80;48.80;;;;;;4990670;28;20046;-81
2021/12/12 03:23:57;;;;;;;2.72;1.60;;;18.80;48.70;;;;;;4990963;28;20061;-82
2021/12/12 03:26:24;;;;;;;2.75;1.40;;;18.80;48.70;;;;;;4990106;28;20076;-81
2021/12/12 03:28:51;;;;;;;2.38;1.40;;;20.10;49.40;;;;;;4990795;28;20418;-82
2021/12/12 03:31:29;;;;;;;3.83;1.30;;;18.80;48.80;;;;;;4990785;28;20240;-82
2021/12/12 03:33:55;;;;;;;2.75;1.40;;;18.80;48.80;;;;;;4990542;28;20054;-82
2021/12/12 03:36:21;;;;;;;4.00;1.42;;;18.80;49.50;;;;;;4990330;28;20077;-82
2021/12/12 03:38:50;;;;;;;3.33;1.60;;;18.80;48.80;;;;;;4990437;28;20045;-82
2021/12/12 03:41:17;;;;;;;2.92;1.33;;;18.80;48.80;;;;;;4990277;28;20047;-82
2021/12/12 03:43:45;;;;;;;2.22;1.27;;;18.70;48.70;;;;;;4991124;28;20038;-82
2021/12/12 03:46:10;;;;;;;2.50;1.20;;;18.70;48.80;;;;;;4990666;28;20035;-82
2021/12/12 03:48:37;;;;;;;2.75;1.30;;;18.70;48.80;;;;;;4990788;28;20101;-82
2021/12/12 03:51:03;;;;;;;2.42;1.10;;;18.70;48.80;;;;;;4990502;28;20117;-82
2021/12/12 03:53:29;;;;;;;3.05;1.13;;;18.70;48.80;;;;;;4987249;28;20502;-83
2021/12/12 03:55:55;;;;;;;2.78;1.30;;;18.70;48.80;;;;;;4990123;28;20053;-83
2021/12/12 03:58:21;;;;;;;3.45;1.45;;;18.70;48.80;;;;;;4990279;28;20042;-82
2021/12/12 04:00:51;;;;;;;2.97;1.33;;;18.70;48.80;;;;;;4990384;28;20052;-82
2021/12/12 04:03:17;;;;;;;3.20;1.30;;;18.70;48.80;;;;;;4989931;28;20145;-83
2021/12/12 04:05:47;;;;;;;4.07;1.70;;;18.70;48.90;;;;;;4990247;28;20125;-83
2021/12/12 04:08:12;;;;;;;3.13;1.20;;;18.70;48.90;;;;;;4989917;28;20101;-83
2021/12/12 04:10:38;;;;;;;3.92;1.42;;;18.70;48.90;;;;;;4989620;28;20050;-83
2021/12/12 04:13:04;;;;;;;4.05;1.27;;;18.70;48.90;;;;;;4990236;28;20038;-83
2021/12/12 04:15:29;;;;;;;3.55;1.60;;;18.70;49.00;;;;;;4990107;28;20058;-83
2021/12/12 04:17:55;;;;;;;2.95;1.40;;;18.80;49.00;;;;;;4989668;28;20057;-81
2021/12/12 04:20:36;;;;;;;4.55;1.80;;;18.80;49.10;;;;;;4989764;28;20054;-81
2021/12/12 04:23:03;;;;;;;3.60;1.27;;;18.80;49.10;;;;;;4990046;28;20097;-81
2021/12/12 04:25:28;;;;;;;3.25;1.17;;;18.80;49.10;;;;;;4989424;28;20078;-82
2021/12/12 04:27:54;;;;;;;2.67;1.20;;;18.80;49.10;;;;;;4989331;28;20104;-82
2021/12/12 04:30:23;;;;;;;4.03;1.52;;;18.80;49.10;;;;;;4989752;28;20053;-82
2021/12/12 04:32:49;;;;;;;4.45;1.40;;;18.80;49.20;;;;;;4989694;28;20504;-82
2021/12/12 04:35:21;;;;;;;2.95;1.30;;;18.80;49.10;;;;;;4989683;28;20141;-82
2021/12/12 04:37:47;;;;;;;4.00;1.30;;;18.80;49.10;;;;;;4989114;28;20101;-83
2021/12/12 04:40:16;;;;;;;3.83;1.58;;;18.90;49.20;;;;;;4989602;28;20678;-82
2021/12/12 04:42:41;;;;;;;2.75;1.23;;;18.90;49.20;;;;;;4989402;28;20046;-83
2021/12/12 04:45:19;;;;;;;3.22;1.85;;;18.90;49.20;;;;;;4989043;28;20699;-83
2021/12/12 04:51:02;;;;;;;3.33;1.33;;;19.00;49.30;;;;;;4989445;28;20062;-83
2021/12/12 04:53:47;;;;;;;2.92;1.50;;;19.00;49.20;;;;;;4989141;28;20525;-83
2021/12/12 04:56:23;;;;;;;3.75;1.42;;;19.00;49.30;;;;;;4975485;28;20053;-82
2021/12/12 04:59:11;;;;;;;3.33;1.35;;;19.00;49.20;;;;;;4988824;28;20050;-84
2021/12/12 05:01:58;;;;;;;3.17;1.30;;;19.00;49.20;;;;;;4975403;28;20536;-84
2021/12/12 05:04:35;;;;;;;3.08;1.42;;;19.10;49.20;;;;;;4474790;28;10000523;-82
2021/12/12 05:07:09;;;;;;;2.50;1.35;;;19.10;49.20;;;;;;4988218;28;20133;-83
2021/12/12 05:09:49;;;;;;;3.55;1.40;;;19.90;49.60;;;;;;4957516;28;20402;-83
2021/12/12 05:12:31;;;;;;;2.97;1.40;;;19.10;49.10;;;;;;4974624;28;20060;-82
2021/12/12 05:15:25;;;;;;;3.33;1.30;;;19.10;49.10;;;;;;4945215;28;20051;-83
2021/12/12 05:18:00;;;;;;;3.13;1.27;;;19.10;49.10;;;;;;4938510;28;20530;-83
2021/12/12 05:20:31;;;;;;;2.75;1.38;;;19.10;49.10;;;;;;4964401;28;20082;-83
2021/12/12 05:22:58;;;;;;;2.83;1.20;;;19.10;49.00;;;;;;4918563;29;20059;-83
2021/12/12 05:25:29;;;;;;;2.72;1.20;;;19.10;49.10;;;;;;4918738;29;20063;-83
2021/12/12 05:27:55;;;;;;;2.72;1.20;;;19.20;49.10;;;;;;4918764;29;20059;-83
2021/12/12 05:30:28;;;;;;;3.47;1.30;;;19.10;49.00;;;;;;4949989;29;20098;-81
2021/12/12 05:32:54;;;;;;;2.22;0.90;;;19.20;49.10;;;;;;4918553;29;20051;-83
2021/12/12 05:35:22;;;;;;;2.55;1.10;;;19.10;49.00;;;;;;4950115;28;20507;-81
2021/12/12 05:37:52;;;;;;;1.70;0.90;;;19.20;49.10;;;;;;4933881;29;20051;-81
2021/12/12 05:40:19;;;;;;;2.17;0.93;;;19.20;49.10;;;;;;4950246;28;20058;-83
2021/12/12 05:42:44;;;;;;;2.75;1.15;;;19.20;49.10;;;;;;4933594;29;20051;-83
2021/12/12 05:45:10;;;;;;;2.58;1.05;;;19.20;49.00;;;;;;4934210;29;20050;-83
2021/12/12 05:47:36;;;;;;;3.00;1.20;;;19.20;49.00;;;;;;4917639;29;20138;-83
2021/12/12 05:50:02;;;;;;;3.03;1.10;;;19.20;49.00;;;;;;4949883;29;20478;-83
2021/12/12 05:52:27;;;;;;;2.10;1.02;;;19.20;49.00;;;;;;4950045;29;20050;-83
2021/12/12 05:54:53;;;;;;;1.92;1.05;;;19.20;49.00;;;;;;4933917;29;20055;-83
2021/12/12 05:57:23;;;;;;;2.38;1.02;;;19.20;48.90;;;;;;4949862;29;20051;-83
2021/12/12 05:59:49;;;;;;;2.13;0.90;;;19.20;49.00;;;;;;4934207;29;20043;-83
2021/12/12 06:02:14;;;;;;;2.95;1.10;;;19.20;48.90;;;;;;4917601;29;20051;-83
2021/12/12 06:04:40;;;;;;;1.85;0.93;;;19.30;49.00;;;;;;4933935;29;20042;-83
2021/12/12 06:07:07;;;;;;;2.38;1.10;;;19.20;48.90;;;;;;4917927;29;20066;-83
2021/12/12 06:09:33;;;;;;;2.88;1.10;;;19.30;49.00;;;;;;4947814;28;20063;-84
2021/12/12 06:11:59;;;;;;;2.50;0.95;;;19.20;48.90;;;;;;4936861;28;20042;-83
2021/12/12 06:14:25;;;;;;;1.85;0.90;;;19.30;49.00;;;;;;4952953;28;20146;-83
2021/12/12 06:16:50;;;;;;;1.70;0.85;;;19.20;48.90;;;;;;4936879;28;20035;-83
2021/12/12 06:19:18;;;;;;;1.88;0.75;;;19.30;49.00;;;;;;4938293;28;20055;-82
2021/12/12 06:21:44;;;;;;;2.08;0.80;;;19.30;48.90;;;;;;4937949;28;20121;-82
2021/12/12 06:24:10;;;;;;;1.98;0.95;;;19.30;49.00;;;;;;4937474;29;20586;-82
2021/12/12 06:26:35;;;;;;;2.45;0.95;;;19.30;49.00;;;;;;4937654;29;20051;-82
2021/12/12 06:29:02;;;;;;;1.65;0.75;;;19.30;48.90;;;;;;4953643;28;20140;-82
2021/12/12 06:31:27;;;;;;;1.85;0.90;;;19.30;49.00;;;;;;4958494;28;20055;-82
2021/12/12 06:33:54;;;;;;;1.63;0.80;;;19.30;48.90;;;;;;4954171;28;20062;-82
2021/12/12 06:36:20;;;;;;;2.05;0.73;;;19.20;48.90;;;;;;4947130;28;20059;-82
2021/12/12 06:38:47;;;;;;;1.42;0.80;;;19.30;48.90;;;;;;4952549;29;20071;-83
2021/12/12 06:41:13;;;;;;;1.33;0.70;;;19.30;48.90;;;;;;4951307;28;20047;-82
2021/12/12 06:43:41;;;;;;;1.40;0.70;;;19.30;48.90;;;;;;4956477;28;20042;-83
2021/12/12 06:46:07;;;;;;;1.95;0.80;;;19.30;49.00;;;;;;4940852;28;20541;-82
2021/12/12 06:48:33;;;;;;;2.47;0.90;;;19.30;48.90;;;;;;4967071;28;20043;-82
2021/12/12 06:50:59;;;;;;;1.58;0.50;;;19.30;48.90;;;;;;4971477;28;20055;-83
2021/12/12 06:53:26;;;;;;;1.77;0.80;;;19.30;48.90;;;;;;4972178;28;20059;-82
2021/12/12 06:55:52;;;;;;;1.58;0.70;;;19.30;49.00;;;;;;4962190;28;20042;-83
2021/12/12 06:58:18;;;;;;;1.13;0.70;;;19.30;48.90;;;;;;4971332;28;20063;-82
2021/12/12 07:00:46;;;;;;;1.33;0.70;;;19.30;48.90;;;;;;4972492;28;20070;-83
2021/12/12 07:03:13;;;;;;;1.55;0.80;;;19.30;48.90;;;;;;4971748;28;20113;-83
2021/12/12 07:05:39;;;;;;;1.30;0.70;;;19.30;48.90;;;;;;4964605;28;20039;-83
2021/12/12 07:08:05;;;;;;;1.75;0.63;;;19.30;48.90;;;;;;4952454;28;20078;-83
2021/12/12 07:10:30;;;;;;;1.27;0.60;;;19.40;49.00;;;;;;4936513;29;20047;-84
2021/12/12 07:12:56;;;;;;;1.35;0.70;;;19.40;49.00;;;;;;4952365;28;20051;-83
2021/12/12 07:15:30;;;;;;;1.58;0.63;;;19.40;49.00;;;;;;4936632;29;20055;-84
2021/12/12 07:17:57;;;;;;;2.20;0.77;;;19.40;49.00;;;;;;4952451;28;20050;-83
2021/12/12 07:20:23;;;;;;;1.48;0.70;;;19.40;49.00;;;;;;4951632;28;20071;-83
2021/12/12 07:22:48;;;;;;;1.70;0.70;;;19.40;48.90;;;;;;4952113;28;20071;-83
2021/12/12 07:25:14;;;;;;;1.80;0.60;;;19.40;48.90;;;;;;4936123;29;20134;-83
2021/12/12 07:27:39;;;;;;;1.85;0.73;;;19.40;48.90;;;;;;4951752;28;20074;-83
2021/12/12 07:30:05;;;;;;;1.65;0.88;;;19.40;48.90;;;;;;4931213;28;20053;-83
2021/12/12 07:32:31;;;;;;;1.10;0.60;;;19.40;48.90;;;;;;4971290;28;20089;-84
2021/12/12 07:34:57;;;;;;;1.10;0.60;;;19.40;48.90;;;;;;4938957;28;20658;-83
2021/12/12 07:37:22;;;;;;;1.55;0.68;;;19.40;49.00;;;;;;4939098;28;20154;-83
2021/12/12 07:39:48;;;;;;;2.03;0.70;;;19.40;48.90;;;;;;4939636;28;20062;-83
2021/12/12 07:42:15;;;;;;;1.27;0.60;;;19.40;48.90;;;;;;4942517;28;20502;-83
2021/12/12 07:44:41;;;;;;;1.88;0.70;;;19.40;49.00;;;;;;4949041;29;20043;-83
2021/12/12 07:47:08;;;;;;;1.63;0.70;;;19.40;48.90;;;;;;4951210;29;20054;-83
2021/12/12 07:49:36;;;;;;;1.80;0.60;;;19.40;48.90;;;;;;4936479;29;20133;-84
2021/12/12 07:52:02;;;;;;;0.85;0.50;;;19.40;48.90;;;;;;4951484;29;20054;-83
2021/12/12 07:54:28;;;;;;;1.15;0.65;;;19.40;48.90;;;;;;4951121;29;20054;-83
2021/12/12 07:56:54;;;;;;;1.15;0.55;;;19.40;48.90;;;;;;4919179;29;20039;-83
2021/12/12 07:59:19;;;;;;;1.50;0.55;;;19.40;48.80;;;;;;4920392;29;20208;-84
2021/12/12 08:01:47;;;;;;;1.35;0.60;;;19.40;48.90;;;;;;4943569;29;20043;-84
2021/12/12 08:04:13;;;;;;;0.95;0.50;;;19.40;48.90;;;;;;4951204;29;20051;-83
2021/12/12 08:06:39;;;;;;;0.70;0.40;;;19.40;48.90;;;;;;4951431;29;20047;-83
2021/12/12 08:09:05;;;;;;;1.30;0.50;;;19.40;48.90;;;;;;4936427;28;20058;-84
2021/12/12 08:11:33;;;;;;;0.90;0.40;;;19.40;48.90;;;;;;4966153;28;20219;-84
2021/12/12 08:13:59;;;;;;;1.00;0.50;;;19.40;48.90;;;;;;4980198;28;20137;-85
2021/12/12 08:16:25;;;;;;;0.47;0.40;;;19.30;48.90;;;;;;4957427;28;20061;-84
2021/12/12 08:18:51;;;;;;;0.80;0.40;;;19.30;48.90;;;;;;4958322;28;20896;-84
2021/12/12 08:21:17;;;;;;;1.40;0.57;;;19.30;48.80;;;;;;4974232;28;20132;-84
2021/12/12 08:23:43;;;;;;;1.00;0.50;;;19.40;48.90;;;;;;4970226;28;20105;-82
2021/12/12 08:26:10;;;;;;;1.60;0.57;;;19.30;48.90;;;;;;4969737;28;20546;-82
2021/12/12 08:28:36;;;;;;;1.45;0.50;;;19.40;48.90;;;;;;4970567;28;20043;-82
2021/12/12 08:31:01;;;;;;;1.35;0.40;;;19.40;48.90;;;;;;4969749;28;20391;-82
2021/12/12 08:33:27;;;;;;;1.27;0.40;;;19.40;48.90;;;;;;4965576;28;20120;-82
2021/12/12 08:35:53;;;;;;;0.82;0.40;;;19.30;48.90;;;;;;4963983;28;20050;-84
2021/12/12 08:38:18;;;;;;;1.30;0.50;;;19.30;48.90;;;;;;4988472;28;20124;-82
2021/12/12 08:40:49;;;;;;;1.38;0.60;;;19.30;48.90;;;;;;4976667;28;20502;-83
2021/12/12 08:43:16;;;;;;;1.00;0.45;;;19.30;48.90;;;;;;4969441;28;20056;-83
2021/12/12 08:45:44;;;;;;;1.02;0.40;;;19.30;48.90;;;;;;4973929;28;20157;-83
2021/12/12 08:48:10;;;;;;;1.23;0.50;;;19.30;48.90;;;;;;4988487;28;20057;-83
2021/12/12 08:50:38;;;;;;;0.75;0.40;;;19.30;48.90;;;;;;4988476;28;20042;-82
2021/12/12 08:53:04;;;;;;;1.27;0.50;;;19.30;48.90;;;;;;4988234;28;20042;-82
2021/12/12 08:55:34;;;;;;;0.88;0.32;;;19.30;48.90;;;;;;4982554;28;20418;-83
2021/12/12 08:58:13;;;;;;;1.02;0.40;;;19.30;48.90;;;;;;4984013;28;20056;-82
2021/12/12 09:00:48;;;;;;;0.98;0.40;;;19.30;48.90;;;;;;4958039;28;20050;-82
2021/12/12 09:03:17;;;;;;;1.10;0.38;;;19.30;48.90;;;;;;4985711;28;20054;-83
2021/12/12 09:05:43;;;;;;;1.45;0.60;;;19.30;48.90;;;;;;4973740;28;20806;-82
2021/12/12 09:08:12;;;;;;;0.82;0.43;;;19.30;48.90;;;;;;4966535;28;20066;-83
2021/12/12 09:10:43;;;;;;;1.10;0.50;;;19.30;48.90;;;;;;4968915;28;20536;-83
2021/12/12 09:13:16;;;;;;;1.00;0.50;;;19.30;49.00;;;;;;4971695;28;20490;-83
2021/12/12 09:15:53;;;;;;;1.25;0.60;;;19.30;48.90;;;;;;4981623;28;20532;-82
2021/12/12 09:18:31;;;;;;;0.65;0.32;;;19.30;48.90;;;;;;4977152;28;20046;-81
2021/12/12 09:21:25;;;;;;;1.33;0.40;;;19.20;48.90;;;;;;4986354;28;20096;-83
2021/12/12 09:24:05;;;;;;;1.67;0.40;;;19.30;49.00;;;;;;4980366;28;20060;-83
2021/12/12 09:26:34;;;;;;;1.15;0.40;;;19.30;49.00;;;;;;4975823;28;20686;-83
2021/12/12 09:29:23;;;;;;;0.70;0.40;;;19.30;49.00;;;;;;4953367;28;20051;-82
2021/12/12 09:32:00;;;;;;;0.95;0.38;;;19.30;49.00;;;;;;4953440;28;20061;-82
2021/12/12 09:34:35;;;;;;;1.15;0.50;;;19.30;49.00;;;;;;4952445;28;20141;-83
2021/12/12 09:37:32;;;;;;;1.58;0.50;;;19.30;49.00;;;;;;4958080;28;20089;-82
2021/12/12 09:40:22;;;;;;;0.90;0.40;;;19.30;49.00;;;;;;4967115;28;20070;-81
2021/12/12 09:43:29;;;;;;;0.80;0.35;;;19.90;49.30;;;;;;4970042;28;20066;-82
2021/12/12 09:46:01;;;;;;;0.90;0.40;;;19.30;49.00;;;;;;4935006;29;20063;-81
2021/12/12 09:51:27;;;;;;;1.08;0.40;;;19.30;49.00;;;;;;4949528;29;20059;-81
2021/12/12 09:54:19;;;;;;;0.70;0.40;;;19.30;49.00;;;;;;4968429;28;20470;-82
2021/12/12 09:57:11;;;;;;;0.88;0.30;;;19.30;49.00;;;;;;4957189;28;20061;-82
2021/12/12 09:59:54;;;;;;;0.65;0.40;;;19.30;49.00;;;;;;4943787;28;20055;-81
2021/12/12 10:02:28;;;;;;;0.63;0.30;;;19.30;49.00;;;;;;4973070;28;20089;-82
2021/12/12 10:05:32;;;;;;;1.02;0.40;;;19.30;49.00;;;;;;4980889;28;20074;-83
2021/12/12 10:07:57;;;;;;;0.98;0.47;;;19.30;49.00;;;;;;4992029;28;20050;-83
2021/12/12 10:10:39;;;;;;;0.63;0.47;;;19.30;49.10;;;;;;4992372;28;20137;-82
2021/12/12 10:13:22;;;;;;;0.63;0.40;;;19.30;49.10;;;;;;4984168;28;20061;-82
2021/12/12 10:15:55;;;;;;;0.75;0.38;;;19.20;49.00;;;;;;4986294;28;20941;-83
2021/12/12 10:18:24;;;;;;;0.88;0.43;;;19.30;49.00;;;;;;4973497;28;20062;-82
2021/12/12 10:21:13;;;;;;;0.80;0.32;;;19.30;49.10;;;;;;4974572;28;20046;-82
2021/12/12 10:23:54;;;;;;;0.60;0.30;;;19.30;49.00;;;;;;4970445;28;20062;-82
2021/12/12 10:26:24;;;;;;;0.47;0.35;;;19.30;49.00;;;;;;4972165;28;20054;-82
2021/12/12 10:28:54;;;;;;;0.68;0.40;;;19.30;49.10;;;;;;4972376;28;20058;-82
2021/12/12 10:31:30;;;;;;;0.73;0.30;;;19.40;49.10;;;;;;4973442;28;20047;-82
2021/12/12 10:34:15;;;;;;;1.02;0.40;;;19.20;49.00;;;;;;4959165;28;20046;-84
2021/12/12 10:37:08;;;;;;;0.70;0.30;;;19.20;49.00;;;;;;4976186;28;20093;-82
2021/12/12 10:39:39;;;;;;;0.85;0.40;;;19.20;49.00;;;;;;4973128;28;20057;-82
2021/12/12 10:42:10;;;;;;;0.85;0.45;;;19.30;49.00;;;;;;4962939;28;20061;-82
2021/12/12 10:44:46;;;;;;;0.82;0.30;;;19.20;49.00;;;;;;4970982;28;20565;-82
2021/12/12 10:47:13;;;;;;;0.60;0.35;;;19.20;49.00;;;;;;4975177;28;20077;-82
2021/12/12 10:49:41;;;;;;;0.50;0.30;;;19.20;49.00;;;;;;4991556;28;20038;-82
2021/12/12 10:52:40;;;;;;;1.00;0.40;;;19.20;49.00;;;;;;4988123;28;20078;-83
2021/12/12 10:55:30;;;;;;;1.05;0.40;;;19.20;49.00;;;;;;4967263;28;20094;-82
2021/12/12 10:58:03;;;;;;;0.85;0.40;;;19.30;49.10;;;;;;4949596;28;20063;-83
2021/12/12 11:00:34;;;;;;;0.65;0.25;;;19.20;49.00;;;;;;4952698;29;20130;-84
2021/12/12 11:03:02;;;;;;;0.30;0.25;;;19.30;49.10;;;;;;4961497;28;20050;-84
2021/12/12 11:05:40;;;;;;;0.45;0.30;;;19.20;49.00;;;;;;4971038;28;20069;-85
2021/12/12 11:08:15;;;;;;;0.75;0.22;;;19.20;49.10;;;;;;4971481;28;20047;-84
2021/12/12 11:10:41;;;;;;;0.68;0.30;;;19.20;49.00;;;;;;4937260;28;20154;-83
2021/12/12 11:13:25;;;;;;;0.95;0.30;;;19.20;49.10;;;;;;4933413;28;20175;-82
2021/12/12 11:15:56;;;;;;;0.60;0.30;;;19.20;49.00;;;;;;4936056;28;20058;-83
2021/12/12 11:18:25;;;;;;;0.55;0.28;;;19.20;49.60;;;;;;4948903;28;20051;-82
2021/12/12 11:21:29;;;;;;;0.45;0.30;;;19.20;49.10;;;;;;4949725;28;20558;-82
2021/12/12 11:23:59;;;;;;;0.85;0.47;;;19.20;49.10;;;;;;4886376;29;20060;-81
2021/12/12 11:26:40;;;;;;;0.55;0.30;;;19.20;49.10;;;;;;4885651;29;20108;-81
2021/12/12 11:29:36;;;;;;;0.60;0.30;;;19.10;49.10;;;;;;4935995;28;20110;-84
2021/12/12 11:32:23;;;;;;;0.52;0.30;;;19.10;49.10;;;;;;4952388;28;20418;-84
2021/12/12 11:34:51;;;;;;;1.00;0.30;;;19.10;49.10;;;;;;4948088;28;20094;-83
2021/12/12 11:37:17;;;;;;;0.30;0.20;;;19.10;49.10;;;;;;4977482;28;20050;-84
2021/12/12 11:40:05;;;;;;;1.02;0.30;;;19.10;49.20;;;;;;4990174;28;20093;-84
2021/12/12 11:42:58;;;;;;;0.55;0.30;;;19.10;49.10;;;;;;4985806;28;20525;-83
2021/12/12 11:45:30;;;;;;;0.47;0.30;;;19.10;49.10;;;;;;4926842;28;20153;-84
2021/12/12 11:48:23;;;;;;;0.85;0.30;;;19.00;49.10;;;;;;4908777;28;20059;-83
2021/12/12 11:51:07;;;;;;;0.70;0.30;;;19.00;49.10;;;;;;4941332;29;20578;-83
2021/12/12 11:54:02;;;;;;;1.05;0.30;;;19.00;49.10;;;;;;4919798;29;20145;-82
2021/12/12 11:56:29;;;;;;;0.28;0.20;;;19.00;49.20;;;;;;4947111;29;20066;-83
2021/12/12 11:59:22;;;;;;;0.47;0.30;;;19.90;49.70;;;;;;4920775;28;20077;-83
2021/12/12 12:01:49;;;;;;;0.65;0.20;;;19.00;49.20;;;;;;4970452;28;20620;-83
2021/12/12 12:04:36;;;;;;;0.57;0.30;;;19.00;49.20;;;;;;4970429;28;20078;-82
2021/12/12 12:07:19;;;;;;;0.30;0.20;;;19.00;49.20;;;;;;4970834;28;20137;-82
2021/12/12 12:10:02;;;;;;;1.00;0.30;;;19.00;49.30;;;;;;4970920;28;20489;-84
2021/12/12 12:12:49;;;;;;;0.60;0.30;;;18.90;49.20;;;;;;4968671;28;20085;-84
2021/12/12 12:15:37;;;;;;;1.08;0.38;;;19.00;49.30;;;;;;4944302;28;20480;-83
2021/12/12 12:18:22;;;;;;;0.55;0.30;;;18.90;49.30;;;;;;4937371;28;20498;-84
2021/12/12 12:21:24;;;;;;;0.35;0.20;;;18.90;49.20;;;;;;4940428;28;20572;-84
2021/12/12 12:26:52;;;;;;;0.63;0.30;;;19.90;49.90;;;;;;4971685;28;20067;-83
2021/12/12 12:29:26;;;;;;;0.43;0.30;;;18.90;49.30;;;;;;4968371;28;20061;-89
2021/12/12 12:32:04;;;;;;;0.85;0.25;;;18.90;49.30;;;;;;4969321;28;20137;-87
2021/12/12 12:35:01;;;;;;;0.45;0.20;;;18.90;49.40;;;;;;4955525;28;20096;-88
2021/12/12 12:38:01;;;;;;;0.57;0.30;;;18.90;49.40;;;;;;4967884;28;20055;-88
2021/12/12 12:40:50;;;;;;;0.40;0.22;;;18.90;49.40;;;;;;4969596;28;20537;-83
2021/12/12 12:43:57;;;;;;;0.28;0.20;;;18.90;49.40;;;;;;4954249;28;20050;-84
2021/12/12 12:47:01;;;;;;;0.85;0.20;;;18.80;49.40;;;;;;4962440;28;20059;-83
2021/12/12 12:50:17;;;;;;;0.25;0.20;;;18.80;49.40;;;;;;4968632;28;20054;-83
2021/12/12 12:53:15;;;;;;;0.32;0.20;;;18.80;49.40;;;;;;4950671;28;20054;-83
2021/12/12 12:56:00;;;;;;;0.90;0.47;;;18.80;49.40;;;;;;4953438;28;20137;-83
2021/12/12 12:58:26;;;;;;;0.93;0.45;;;18.80;49.40;;;;;;4954866;28;20126;-82
2021/12/12 13:00:56;;;;;;;0.73;0.30;;;18.80;49.50;;;;;;4960107;28;20146;-84
2021/12/12 13:03:45;;;;;;;0.63;0.22;;;18.80;49.50;;;;;;4962586;28;20058;-84
2021/12/12 13:06:11;;;;;;;0.43;0.30;;;18.80;49.50;;;;;;4968911;28;20649;-84
2021/12/12 13:08:49;;;;;;;0.40;0.25;;;18.80;49.50;;;;;;4964157;28;20062;-84
2021/12/12 13:11:35;;;;;;;1.00;0.32;;;18.80;49.60;;;;;;4969397;28;20062;-83
2021/12/12 13:14:19;;;;;;;1.17;0.30;;;18.80;49.50;;;;;;4944055;28;20179;-83
2021/12/12 13:16:47;;;;;;;0.70;0.30;;;18.90;49.60;;;;;;4989256;28;20490;-84
2021/12/12 13:19:42;;;;;;;0.63;0.30;;;18.80;49.60;;;;;;4975796;28;20050;-83
2021/12/12 13:22:35;;;;;;;0.57;0.20;;;18.80;49.60;;;;;;4955271;28;20039;-83
2021/12/12 13:25:15;;;;;;;0.47;0.20;;;18.80;49.60;;;;;;4968761;28;20092;-83
2021/12/12 13:28:02;;;;;;;0.45;0.20;;;18.70;49.60;;;;;;4969247;28;20054;-83
2021/12/12 13:31:00;;;;;;;0.57;0.30;;;19.20;49.90;;;;;;4988943;28;20046;-82
2021/12/12 13:33:50;;;;;;;0.40;0.20;;;18.70;50.30;;;;;;4969786;28;20054;-83
2021/12/12 13:36:50;;;;;;;0.80;0.30;;;18.70;49.60;;;;;;4972243;28;20122;-82
2021/12/12 13:40:04;;;;;;;0.70;0.25;;;18.70;49.70;;;;;;4955297;28;20053;-82